sensor_id;sensor_type;location;lat;lon;timestamp;P1;durP1;ratioP1;P2;durP2;ratioP2
773;SDS011;370;48.810;9.150;2022-12-13T00:00:17;1.15;;;0.65;;
773;SDS011;370;48.810;9.150;2022-12-13T00:02:44;0.93;;;0.82;;
773;SDS011;370;48.810;9.150;2022-12-13T00:05:12;17.10;;;2.05;;
773;SDS011;370;48.810;9.150;2022-12-13T00:07:39;4.30;;;2.47;;
773;SDS011;370;48.810;9.150;2022-12-13T00:10:06;3.63;;;1.73;;
773;SDS011;370;48.810;9.150;2022-12-13T00:12:33;2.33;;;2.15;;
773;SDS011;370;48.810;9.150;2022-12-13T00:15:00;2.95;;;2.75;;
773;SDS011;370;48.810;9.150;2022-12-13T00:17:30;4.88;;;2.35;;
773;SDS011;370;48.810;9.150;2022-12-13T00:19:57;2.42;;;2.22;;
773;SDS011;370;48.810;9.150;2022-12-13T00:22:25;11.38;;;3.15;;
773;SDS011;370;48.810;9.150;2022-12-13T00:24:52;4.38;;;1.73;;
773;SDS011;370;48.810;9.150;2022-12-13T00:27:20;2.83;;;1.83;;
773;SDS011;370;48.810;9.150;2022-12-13T00:29:47;2.90;;;1.65;;
773;SDS011;370;48.810;9.150;2022-12-13T00:32:13;0.80;;;0.70;;
773;SDS011;370;48.810;9.150;2022-12-13T00:34:40;1.95;;;1.80;;
773;SDS011;370;48.810;9.150;2022-12-13T00:37:07;0.55;;;0.52;;
773;SDS011;370;48.810;9.150;2022-12-13T00:39:35;1.42;;;1.33;;
773;SDS011;370;48.810;9.150;2022-12-13T00:42:02;0.52;;;0.45;;
773;SDS011;370;48.810;9.150;2022-12-13T00:44:29;1.27;;;0.85;;
773;SDS011;370;48.810;9.150;2022-12-13T00:46:56;0.82;;;0.73;;
773;SDS011;370;48.810;9.150;2022-12-13T00:49:23;1.00;;;0.73;;
773;SDS011;370;48.810;9.150;2022-12-13T00:51:50;1.33;;;1.23;;
773;SDS011;370;48.810;9.150;2022-12-13T00:54:17;9.25;;;2.42;;
773;SDS011;370;48.810;9.150;2022-12-13T00:56:45;0.85;;;0.70;;
773;SDS011;370;48.810;9.150;2022-12-13T00:59:12;1.90;;;1.80;;
773;SDS011;370;48.810;9.150;2022-12-13T01:01:40;0.90;;;0.75;;
773;SDS011;370;48.810;9.150;2022-12-13T01:04:06;2.10;;;0.68;;
773;SDS011;370;48.810;9.150;2022-12-13T01:06:34;0.90;;;0.80;;
773;SDS011;370;48.810;9.150;2022-12-13T01:09:03;3.95;;;1.25;;
773;SDS011;370;48.810;9.150;2022-12-13T01:11:32;1.95;;;1.35;;
773;SDS011;370;48.810;9.150;2022-12-13T01:14:01;0.60;;;0.50;;
773;SDS011;370;48.810;9.150;2022-12-13T01:16:27;1.52;;;1.30;;
773;SDS011;370;48.810;9.150;2022-12-13T01:18:55;0.82;;;0.75;;
773;SDS011;370;48.810;9.150;2022-12-13T01:21:22;5.65;;;1.63;;
773;SDS011;370;48.810;9.150;2022-12-13T01:23:49;1.00;;;0.93;;
773;SDS011;370;48.810;9.150;2022-12-13T01:26:16;2.60;;;2.00;;
773;SDS011;370;48.810;9.150;2022-12-13T01:28:45;1.75;;;1.65;;
773;SDS011;370;48.810;9.150;2022-12-13T01:31:14;0.93;;;0.82;;
773;SDS011;370;48.810;9.150;2022-12-13T01:33:42;1.23;;;0.70;;
773;SDS011;370;48.810;9.150;2022-12-13T01:36:12;3.80;;;2.05;;
773;SDS011;370;48.810;9.150;2022-12-13T01:38:41;0.40;;;0.40;;
773;SDS011;370;48.810;9.150;2022-12-13T01:41:09;3.22;;;1.10;;
773;SDS011;370;48.810;9.150;2022-12-13T01:46:32;4.65;;;1.70;;
773;SDS011;370;48.810;9.150;2022-12-13T01:49:01;0.98;;;0.70;;
773;SDS011;370;48.810;9.150;2022-12-13T01:51:33;1.48;;;0.93;;
773;SDS011;370;48.810;9.150;2022-12-13T01:54:05;1.48;;;0.85;;
773;SDS011;370;48.810;9.150;2022-12-13T01:56:35;2.42;;;1.13;;
773;SDS011;370;48.810;9.150;2022-12-13T01:59:06;1.80;;;1.45;;
773;SDS011;370;48.810;9.150;2022-12-13T02:01:35;5.50;;;1.05;;
773;SDS011;370;48.810;9.150;2022-12-13T02:04:03;3.78;;;1.77;;
773;SDS011;370;48.810;9.150;2022-12-13T02:06:32;0.70;;;0.60;;
773;SDS011;370;48.810;9.150;2022-12-13T02:09:01;1.40;;;0.77;;
773;SDS011;370;48.810;9.150;2022-12-13T02:11:30;0.50;;;0.47;;
773;SDS011;370;48.810;9.150;2022-12-13T02:13:59;0.60;;;0.50;;
773;SDS011;370;48.810;9.150;2022-12-13T02:16:29;1.00;;;0.90;;
773;SDS011;370;48.810;9.150;2022-12-13T02:19:20;1.02;;;0.88;;
773;SDS011;370;48.810;9.150;2022-12-13T02:22:09;2.88;;;0.93;;
773;SDS011;370;48.810;9.150;2022-12-13T02:25:04;3.10;;;1.02;;
773;SDS011;370;48.810;9.150;2022-12-13T02:27:48;1.05;;;0.95;;
773;SDS011;370;48.810;9.150;2022-12-13T02:30:29;1.25;;;1.15;;
773;SDS011;370;48.810;9.150;2022-12-13T02:35:58;1.17;;;0.68;;
773;SDS011;370;48.810;9.150;2022-12-13T02:38:33;0.73;;;0.73;;
773;SDS011;370;48.810;9.150;2022-12-13T02:41:05;1.05;;;0.88;;
773;SDS011;370;48.810;9.150;2022-12-13T02:43:41;1.73;;;1.63;;
773;SDS011;370;48.810;9.150;2022-12-13T02:46:14;2.50;;;1.90;;
773;SDS011;370;48.810;9.150;2022-12-13T02:48:44;2.65;;;2.15;;
773;SDS011;370;48.810;9.150;2022-12-13T02:51:12;1.05;;;0.77;;
773;SDS011;370;48.810;9.150;2022-12-13T02:53:40;1.15;;;1.05;;
773;SDS011;370;48.810;9.150;2022-12-13T02:56:08;1.27;;;1.00;;
773;SDS011;370;48.810;9.150;2022-12-13T02:58:36;0.30;;;0.30;;
773;SDS011;370;48.810;9.150;2022-12-13T03:01:12;0.60;;;0.50;;
773;SDS011;370;48.810;9.150;2022-12-13T03:03:54;2.25;;;2.05;;
773;SDS011;370;48.810;9.150;2022-12-13T03:06:35;0.35;;;0.32;;
773;SDS011;370;48.810;9.150;2022-12-13T03:09:24;1.73;;;0.95;;
773;SDS011;370;48.810;9.150;2022-12-13T03:12:04;2.83;;;0.73;;
773;SDS011;370;48.810;9.150;2022-12-13T03:15:00;1.42;;;1.30;;
773;SDS011;370;48.810;9.150;2022-12-13T03:17:36;0.75;;;0.63;;
773;SDS011;370;48.810;9.150;2022-12-13T03:20:08;1.30;;;1.20;;
773;SDS011;370;48.810;9.150;2022-12-13T03:22:35;2.80;;;1.33;;
773;SDS011;370;48.810;9.150;2022-12-13T03:25:01;0.40;;;0.40;;
773;SDS011;370;48.810;9.150;2022-12-13T03:27:28;1.13;;;0.75;;
773;SDS011;370;48.810;9.150;2022-12-13T03:29:55;1.48;;;1.38;;
773;SDS011;370;48.810;9.150;2022-12-13T03:32:22;2.42;;;1.58;;
773;SDS011;370;48.810;9.150;2022-12-13T03:34:50;1.90;;;1.48;;
773;SDS011;370;48.810;9.150;2022-12-13T03:37:17;0.45;;;0.43;;
773;SDS011;370;48.810;9.150;2022-12-13T03:39:44;8.88;;;1.55;;
773;SDS011;370;48.810;9.150;2022-12-13T03:42:10;1.08;;;0.95;;
773;SDS011;370;48.810;9.150;2022-12-13T03:44:37;4.97;;;2.13;;
773;SDS011;370;48.810;9.150;2022-12-13T03:47:04;0.30;;;0.30;;
773;SDS011;370;48.810;9.150;2022-12-13T03:49:31;1.45;;;0.85;;
773;SDS011;370;48.810;9.150;2022-12-13T03:51:59;0.95;;;0.85;;
773;SDS011;370;48.810;9.150;2022-12-13T03:54:26;1.13;;;1.05;;
773;SDS011;370;48.810;9.150;2022-12-13T03:56:53;1.58;;;0.82;;
773;SDS011;370;48.810;9.150;2022-12-13T03:59:19;7.15;;;1.60;;
773;SDS011;370;48.810;9.150;2022-12-13T04:01:46;1.40;;;1.30;;
773;SDS011;370;48.810;9.150;2022-12-13T04:04:13;1.98;;;1.38;;
773;SDS011;370;48.810;9.150;2022-12-13T04:06:40;1.15;;;1.08;;
773;SDS011;370;48.810;9.150;2022-12-13T04:09:08;0.45;;;0.40;;
773;SDS011;370;48.810;9.150;2022-12-13T04:11:35;0.88;;;0.80;;
773;SDS011;370;48.810;9.150;2022-12-13T04:14:33;0.93;;;0.90;;
773;SDS011;370;48.810;9.150;2022-12-13T04:17:00;21.80;;;2.70;;
773;SDS011;370;48.810;9.150;2022-12-13T04:19:27;0.38;;;0.35;;
773;SDS011;370;48.810;9.150;2022-12-13T04:21:54;4.20;;;1.75;;
773;SDS011;370;48.810;9.150;2022-12-13T04:24:22;2.78;;;1.95;;
773;SDS011;370;48.810;9.150;2022-12-13T04:26:49;1.40;;;1.08;;
773;SDS011;370;48.810;9.150;2022-12-13T04:29:16;1.25;;;1.00;;
773;SDS011;370;48.810;9.150;2022-12-13T04:31:43;2.50;;;1.20;;
773;SDS011;370;48.810;9.150;2022-12-13T04:34:09;0.60;;;0.50;;
773;SDS011;370;48.810;9.150;2022-12-13T04:36:36;1.20;;;0.95;;
773;SDS011;370;48.810;9.150;2022-12-13T04:39:03;1.10;;;0.65;;
773;SDS011;370;48.810;9.150;2022-12-13T04:41:35;1.45;;;1.17;;
773;SDS011;370;48.810;9.150;2022-12-13T04:44:02;3.78;;;1.25;;
773;SDS011;370;48.810;9.150;2022-12-13T04:46:30;1.00;;;0.90;;
773;SDS011;370;48.810;9.150;2022-12-13T04:48:57;0.30;;;0.30;;
773;SDS011;370;48.810;9.150;2022-12-13T04:51:24;0.40;;;0.40;;
773;SDS011;370;48.810;9.150;2022-12-13T04:53:51;0.30;;;0.30;;
773;SDS011;370;48.810;9.150;2022-12-13T04:56:18;1.25;;;1.13;;
773;SDS011;370;48.810;9.150;2022-12-13T04:58:46;0.63;;;0.52;;
773;SDS011;370;48.810;9.150;2022-12-13T05:01:13;1.40;;;1.27;;
773;SDS011;370;48.810;9.150;2022-12-13T05:03:39;0.60;;;0.52;;
773;SDS011;370;48.810;9.150;2022-12-13T05:06:07;0.70;;;0.60;;
773;SDS011;370;48.810;9.150;2022-12-13T05:08:36;3.38;;;2.00;;
773;SDS011;370;48.810;9.150;2022-12-13T05:11:03;1.67;;;1.35;;
773;SDS011;370;48.810;9.150;2022-12-13T05:13:30;2.47;;;1.45;;
773;SDS011;370;48.810;9.150;2022-12-13T05:16:00;1.75;;;0.90;;
773;SDS011;370;48.810;9.150;2022-12-13T05:18:29;0.60;;;0.50;;
773;SDS011;370;48.810;9.150;2022-12-13T05:20:55;1.60;;;0.75;;
773;SDS011;370;48.810;9.150;2022-12-13T05:23:26;7.88;;;1.35;;
773;SDS011;370;48.810;9.150;2022-12-13T05:25:53;0.85;;;0.75;;
773;SDS011;370;48.810;9.150;2022-12-13T05:28:20;0.98;;;0.85;;
773;SDS011;370;48.810;9.150;2022-12-13T05:30:49;1.15;;;1.05;;
773;SDS011;370;48.810;9.150;2022-12-13T05:33:18;0.63;;;0.60;;
773;SDS011;370;48.810;9.150;2022-12-13T05:35:44;0.77;;;0.77;;
773;SDS011;370;48.810;9.150;2022-12-13T05:38:11;1.33;;;1.23;;
773;SDS011;370;48.810;9.150;2022-12-13T05:40:38;11.40;;;2.85;;
773;SDS011;370;48.810;9.150;2022-12-13T05:43:05;2.85;;;1.65;;
773;SDS011;370;48.810;9.150;2022-12-13T05:45:32;1.20;;;1.17;;
773;SDS011;370;48.810;9.150;2022-12-13T05:47:59;0.55;;;0.52;;
773;SDS011;370;48.810;9.150;2022-12-13T05:50:27;1.05;;;0.95;;
773;SDS011;370;48.810;9.150;2022-12-13T05:52:54;1.33;;;1.23;;
773;SDS011;370;48.810;9.150;2022-12-13T05:55:21;4.97;;;1.95;;
773;SDS011;370;48.810;9.150;2022-12-13T05:57:50;0.80;;;0.70;;
773;SDS011;370;48.810;9.150;2022-12-13T06:00:37;1.15;;;1.05;;
773;SDS011;370;48.810;9.150;2022-12-13T06:03:03;1.13;;;1.10;;
773;SDS011;370;48.810;9.150;2022-12-13T06:05:32;1.05;;;0.88;;
773;SDS011;370;48.810;9.150;2022-12-13T06:07:59;4.57;;;2.17;;
773;SDS011;370;48.810;9.150;2022-12-13T06:10:26;1.30;;;0.57;;
773;SDS011;370;48.810;9.150;2022-12-13T06:12:53;2.53;;;2.35;;
773;SDS011;370;48.810;9.150;2022-12-13T06:15:20;2.45;;;1.75;;
773;SDS011;370;48.810;9.150;2022-12-13T06:17:46;1.65;;;0.80;;
773;SDS011;370;48.810;9.150;2022-12-13T06:20:13;9.98;;;1.33;;
773;SDS011;370;48.810;9.150;2022-12-13T06:22:41;5.53;;;1.15;;
773;SDS011;370;48.810;9.150;2022-12-13T06:25:08;1.30;;;0.70;;
773;SDS011;370;48.810;9.150;2022-12-13T06:27:35;2.33;;;1.38;;
773;SDS011;370;48.810;9.150;2022-12-13T06:30:02;2.15;;;0.55;;
773;SDS011;370;48.810;9.150;2022-12-13T06:32:29;0.80;;;0.75;;
773;SDS011;370;48.810;9.150;2022-12-13T06:34:56;2.25;;;1.17;;
773;SDS011;370;48.810;9.150;2022-12-13T06:37:22;0.82;;;0.50;;
773;SDS011;370;48.810;9.150;2022-12-13T06:39:51;0.85;;;0.80;;
773;SDS011;370;48.810;9.150;2022-12-13T06:42:18;1.40;;;1.30;;
773;SDS011;370;48.810;9.150;2022-12-13T06:44:44;2.17;;;1.33;;
773;SDS011;370;48.810;9.150;2022-12-13T06:47:12;1.10;;;0.93;;
773;SDS011;370;48.810;9.150;2022-12-13T06:49:39;1.30;;;1.08;;
773;SDS011;370;48.810;9.150;2022-12-13T06:52:07;1.67;;;1.27;;
773;SDS011;370;48.810;9.150;2022-12-13T06:54:35;0.65;;;0.55;;
773;SDS011;370;48.810;9.150;2022-12-13T06:57:03;1.98;;;1.00;;
773;SDS011;370;48.810;9.150;2022-12-13T06:59:30;0.50;;;0.40;;
773;SDS011;370;48.810;9.150;2022-12-13T07:01:57;0.30;;;0.30;;
773;SDS011;370;48.810;9.150;2022-12-13T07:04:24;1.08;;;0.98;;
773;SDS011;370;48.810;9.150;2022-12-13T07:06:51;7.72;;;3.47;;
773;SDS011;370;48.810;9.150;2022-12-13T07:09:17;10.70;;;1.98;;
773;SDS011;370;48.810;9.150;2022-12-13T07:11:44;2.45;;;2.25;;
773;SDS011;370;48.810;9.150;2022-12-13T07:14:12;0.73;;;0.65;;
773;SDS011;370;48.810;9.150;2022-12-13T07:16:39;0.35;;;0.35;;
773;SDS011;370;48.810;9.150;2022-12-13T07:19:06;0.75;;;0.68;;
773;SDS011;370;48.810;9.150;2022-12-13T07:21:34;2.33;;;1.15;;
773;SDS011;370;48.810;9.150;2022-12-13T07:24:04;0.30;;;0.30;;
773;SDS011;370;48.810;9.150;2022-12-13T07:26:31;0.60;;;0.50;;
773;SDS011;370;48.810;9.150;2022-12-13T07:28:58;0.95;;;0.85;;
773;SDS011;370;48.810;9.150;2022-12-13T07:31:26;5.78;;;0.68;;
773;SDS011;370;48.810;9.150;2022-12-13T07:33:53;0.85;;;0.85;;
773;SDS011;370;48.810;9.150;2022-12-13T07:36:20;0.77;;;0.43;;
773;SDS011;370;48.810;9.150;2022-12-13T07:38:49;1.05;;;0.57;;
773;SDS011;370;48.810;9.150;2022-12-13T07:41:16;2.05;;;0.63;;
773;SDS011;370;48.810;9.150;2022-12-13T07:43:43;1.10;;;1.00;;
773;SDS011;370;48.810;9.150;2022-12-13T07:46:10;4.65;;;1.52;;
773;SDS011;370;48.810;9.150;2022-12-13T07:48:38;0.65;;;0.63;;
773;SDS011;370;48.810;9.150;2022-12-13T07:51:06;1.25;;;1.08;;
773;SDS011;370;48.810;9.150;2022-12-13T07:53:35;1.63;;;1.55;;
773;SDS011;370;48.810;9.150;2022-12-13T07:56:03;2.38;;;0.98;;
773;SDS011;370;48.810;9.150;2022-12-13T07:58:31;5.57;;;2.75;;
773;SDS011;370;48.810;9.150;2022-12-13T08:00:58;3.15;;;2.15;;
773;SDS011;370;48.810;9.150;2022-12-13T08:03:27;1.60;;;1.50;;
773;SDS011;370;48.810;9.150;2022-12-13T08:05:59;5.38;;;1.98;;
773;SDS011;370;48.810;9.150;2022-12-13T08:08:27;3.10;;;1.65;;
773;SDS011;370;48.810;9.150;2022-12-13T08:10:53;1.30;;;1.02;;
773;SDS011;370;48.810;9.150;2022-12-13T08:13:20;1.50;;;1.17;;
773;SDS011;370;48.810;9.150;2022-12-13T08:15:47;7.68;;;2.55;;
773;SDS011;370;48.810;9.150;2022-12-13T08:18:14;4.35;;;2.15;;
773;SDS011;370;48.810;9.150;2022-12-13T08:20:40;0.80;;;0.73;;
773;SDS011;370;48.810;9.150;2022-12-13T08:23:08;0.40;;;0.30;;
773;SDS011;370;48.810;9.150;2022-12-13T08:25:35;4.15;;;2.33;;
773;SDS011;370;48.810;9.150;2022-12-13T08:28:02;2.80;;;2.35;;
773;SDS011;370;48.810;9.150;2022-12-13T08:30:30;9.43;;;2.28;;
773;SDS011;370;48.810;9.150;2022-12-13T08:32:57;13.25;;;2.90;;
773;SDS011;370;48.810;9.150;2022-12-13T08:35:25;10.85;;;1.98;;
773;SDS011;370;48.810;9.150;2022-12-13T08:37:52;17.48;;;5.43;;
773;SDS011;370;48.810;9.150;2022-12-13T08:40:20;3.22;;;1.77;;
773;SDS011;370;48.810;9.150;2022-12-13T08:42:47;3.97;;;2.05;;
773;SDS011;370;48.810;9.150;2022-12-13T08:45:14;2.17;;;1.73;;
773;SDS011;370;48.810;9.150;2022-12-13T08:47:41;3.47;;;2.08;;
773;SDS011;370;48.810;9.150;2022-12-13T08:50:07;3.67;;;2.30;;
773;SDS011;370;48.810;9.150;2022-12-13T08:52:34;5.43;;;1.08;;
773;SDS011;370;48.810;9.150;2022-12-13T08:55:01;5.60;;;1.30;;
773;SDS011;370;48.810;9.150;2022-12-13T08:57:29;5.38;;;1.70;;
773;SDS011;370;48.810;9.150;2022-12-13T08:59:56;2.42;;;2.25;;
773;SDS011;370;48.810;9.150;2022-12-13T09:02:24;4.10;;;2.90;;
773;SDS011;370;48.810;9.150;2022-12-13T09:04:50;4.32;;;2.78;;
773;SDS011;370;48.810;9.150;2022-12-13T09:07:17;5.35;;;3.00;;
773;SDS011;370;48.810;9.150;2022-12-13T09:09:44;8.68;;;3.97;;
773;SDS011;370;48.810;9.150;2022-12-13T09:12:11;11.25;;;4.57;;
773;SDS011;370;48.810;9.150;2022-12-13T09:14:39;21.60;;;6.18;;
773;SDS011;370;48.810;9.150;2022-12-13T09:17:06;11.05;;;4.70;;
773;SDS011;370;48.810;9.150;2022-12-13T09:19:33;10.90;;;4.95;;
773;SDS011;370;48.810;9.150;2022-12-13T09:22:00;20.42;;;5.95;;
773;SDS011;370;48.810;9.150;2022-12-13T09:24:26;12.80;;;4.40;;
773;SDS011;370;48.810;9.150;2022-12-13T09:26:53;15.77;;;6.80;;
773;SDS011;370;48.810;9.150;2022-12-13T09:29:20;14.00;;;5.32;;
773;SDS011;370;48.810;9.150;2022-12-13T09:31:48;13.27;;;6.82;;
773;SDS011;370;48.810;9.150;2022-12-13T09:34:15;10.88;;;5.13;;
773;SDS011;370;48.810;9.150;2022-12-13T09:36:42;13.85;;;5.00;;
773;SDS011;370;48.810;9.150;2022-12-13T09:39:09;10.95;;;5.25;;
773;SDS011;370;48.810;9.150;2022-12-13T09:41:36;18.35;;;8.20;;
773;SDS011;370;48.810;9.150;2022-12-13T09:44:10;17.02;;;6.68;;
773;SDS011;370;48.810;9.150;2022-12-13T09:46:42;17.75;;;7.05;;
773;SDS011;370;48.810;9.150;2022-12-13T09:49:13;13.45;;;6.30;;
773;SDS011;370;48.810;9.150;2022-12-13T09:51:43;13.40;;;6.50;;
773;SDS011;370;48.810;9.150;2022-12-13T09:54:15;17.75;;;5.97;;
773;SDS011;370;48.810;9.150;2022-12-13T09:56:45;21.75;;;6.85;;
773;SDS011;370;48.810;9.150;2022-12-13T09:59:14;16.55;;;7.03;;
773;SDS011;370;48.810;9.150;2022-12-13T10:01:42;17.58;;;5.38;;
773;SDS011;370;48.810;9.150;2022-12-13T10:04:09;12.45;;;5.10;;
773;SDS011;370;48.810;9.150;2022-12-13T10:06:39;14.75;;;5.30;;
773;SDS011;370;48.810;9.150;2022-12-13T10:09:06;14.70;;;4.75;;
773;SDS011;370;48.810;9.150;2022-12-13T10:11:44;12.90;;;5.47;;
773;SDS011;370;48.810;9.150;2022-12-13T10:14:13;10.82;;;4.70;;
773;SDS011;370;48.810;9.150;2022-12-13T10:16:46;9.90;;;4.30;;
773;SDS011;370;48.810;9.150;2022-12-13T10:19:18;13.82;;;4.80;;
773;SDS011;370;48.810;9.150;2022-12-13T10:21:49;12.63;;;4.45;;
773;SDS011;370;48.810;9.150;2022-12-13T10:24:17;11.70;;;3.33;;
773;SDS011;370;48.810;9.150;2022-12-13T10:26:46;6.53;;;3.88;;
773;SDS011;370;48.810;9.150;2022-12-13T10:29:13;18.30;;;6.75;;
773;SDS011;370;48.810;9.150;2022-12-13T10:31:41;9.65;;;4.55;;
773;SDS011;370;48.810;9.150;2022-12-13T10:34:19;8.25;;;3.58;;
773;SDS011;370;48.810;9.150;2022-12-13T10:36:47;7.45;;;3.60;;
773;SDS011;370;48.810;9.150;2022-12-13T10:39:15;9.82;;;3.85;;
773;SDS011;370;48.810;9.150;2022-12-13T10:41:44;14.93;;;4.25;;
773;SDS011;370;48.810;9.150;2022-12-13T10:44:18;12.43;;;4.28;;
773;SDS011;370;48.810;9.150;2022-12-13T10:46:49;13.15;;;2.88;;
773;SDS011;370;48.810;9.150;2022-12-13T10:49:20;16.10;;;4.68;;
773;SDS011;370;48.810;9.150;2022-12-13T10:51:49;10.77;;;3.83;;
773;SDS011;370;48.810;9.150;2022-12-13T10:54:22;14.18;;;4.55;;
773;SDS011;370;48.810;9.150;2022-12-13T10:56:52;10.82;;;3.80;;
773;SDS011;370;48.810;9.150;2022-12-13T10:59:25;13.23;;;5.78;;
773;SDS011;370;48.810;9.150;2022-12-13T11:01:56;7.60;;;3.33;;
773;SDS011;370;48.810;9.150;2022-12-13T11:04:27;4.95;;;2.65;;
773;SDS011;370;48.810;9.150;2022-12-13T11:06:57;9.70;;;5.55;;
773;SDS011;370;48.810;9.150;2022-12-13T11:09:26;10.10;;;3.35;;
773;SDS011;370;48.810;9.150;2022-12-13T11:11:55;9.68;;;3.95;;
773;SDS011;370;48.810;9.150;2022-12-13T11:14:23;11.32;;;3.72;;
773;SDS011;370;48.810;9.150;2022-12-13T11:16:53;10.02;;;4.72;;
773;SDS011;370;48.810;9.150;2022-12-13T11:19:24;7.53;;;2.50;;
773;SDS011;370;48.810;9.150;2022-12-13T11:21:58;11.82;;;4.30;;
773;SDS011;370;48.810;9.150;2022-12-13T11:24:27;5.45;;;3.47;;
773;SDS011;370;48.810;9.150;2022-12-13T11:26:59;13.15;;;4.55;;
773;SDS011;370;48.810;9.150;2022-12-13T11:29:47;13.27;;;4.05;;
773;SDS011;370;48.810;9.150;2022-12-13T11:32:30;8.35;;;3.33;;
773;SDS011;370;48.810;9.150;2022-12-13T11:35:06;13.27;;;4.70;;
773;SDS011;370;48.810;9.150;2022-12-13T11:37:43;14.65;;;4.43;;
773;SDS011;370;48.810;9.150;2022-12-13T11:40:16;11.75;;;5.03;;
773;SDS011;370;48.810;9.150;2022-12-13T11:42:46;14.10;;;4.95;;
773;SDS011;370;48.810;9.150;2022-12-13T11:45:18;11.23;;;4.70;;
773;SDS011;370;48.810;9.150;2022-12-13T11:47:48;15.65;;;5.25;;
773;SDS011;370;48.810;9.150;2022-12-13T11:50:24;12.85;;;5.00;;
773;SDS011;370;48.810;9.150;2022-12-13T11:52:56;11.13;;;4.15;;
773;SDS011;370;48.810;9.150;2022-12-13T11:55:27;14.73;;;5.47;;
773;SDS011;370;48.810;9.150;2022-12-13T11:58:02;15.25;;;5.25;;
773;SDS011;370;48.810;9.150;2022-12-13T12:00:32;9.50;;;4.13;;
773;SDS011;370;48.810;9.150;2022-12-13T12:03:08;20.73;;;6.40;;
773;SDS011;370;48.810;9.150;2022-12-13T12:05:44;13.88;;;4.65;;
773;SDS011;370;48.810;9.150;2022-12-13T12:08:17;28.02;;;5.45;;
773;SDS011;370;48.810;9.150;2022-12-13T12:10:50;13.18;;;5.35;;
773;SDS011;370;48.810;9.150;2022-12-13T12:13:27;9.85;;;4.60;;
773;SDS011;370;48.810;9.150;2022-12-13T12:16:01;9.10;;;4.18;;
773;SDS011;370;48.810;9.150;2022-12-13T12:18:34;5.43;;;2.83;;
773;SDS011;370;48.810;9.150;2022-12-13T12:21:05;9.25;;;3.50;;
773;SDS011;370;48.810;9.150;2022-12-13T12:23:46;15.00;;;4.88;;
773;SDS011;370;48.810;9.150;2022-12-13T12:26:25;14.48;;;5.65;;
773;SDS011;370;48.810;9.150;2022-12-13T12:29:03;13.57;;;4.28;;
773;SDS011;370;48.810;9.150;2022-12-13T12:31:58;17.45;;;4.00;;
773;SDS011;370;48.810;9.150;2022-12-13T12:34:34;13.75;;;4.95;;
773;SDS011;370;48.810;9.150;2022-12-13T12:37:11;7.97;;;3.53;;
773;SDS011;370;48.810;9.150;2022-12-13T12:39:52;10.55;;;5.38;;
773;SDS011;370;48.810;9.150;2022-12-13T12:45:22;5.85;;;3.05;;
773;SDS011;370;48.810;9.150;2022-12-13T12:48:01;21.75;;;4.22;;
773;SDS011;370;48.810;9.150;2022-12-13T12:50:41;7.55;;;3.65;;
773;SDS011;370;48.810;9.150;2022-12-13T12:53:25;11.20;;;3.95;;
773;SDS011;370;48.810;9.150;2022-12-13T12:56:09;16.23;;;3.65;;
773;SDS011;370;48.810;9.150;2022-12-13T12:58:50;4.90;;;2.63;;
773;SDS011;370;48.810;9.150;2022-12-13T13:01:28;8.52;;;2.97;;
773;SDS011;370;48.810;9.150;2022-12-13T13:04:04;9.75;;;4.05;;
773;SDS011;370;48.810;9.150;2022-12-13T13:06:35;8.57;;;3.33;;
773;SDS011;370;48.810;9.150;2022-12-13T13:09:07;4.45;;;2.28;;
773;SDS011;370;48.810;9.150;2022-12-13T13:11:37;4.25;;;2.88;;
773;SDS011;370;48.810;9.150;2022-12-13T13:16:52;12.35;;;5.07;;
773;SDS011;370;48.810;9.150;2022-12-13T13:22:14;1.95;;;1.83;;
773;SDS011;370;48.810;9.150;2022-12-13T13:25:12;8.52;;;3.90;;
773;SDS011;370;48.810;9.150;2022-12-13T13:27:58;5.43;;;2.25;;
773;SDS011;370;48.810;9.150;2022-12-13T13:30:28;6.50;;;2.78;;
773;SDS011;370;48.810;9.150;2022-12-13T13:32:55;7.47;;;4.13;;
773;SDS011;370;48.810;9.150;2022-12-13T13:38:27;5.60;;;2.75;;
773;SDS011;370;48.810;9.150;2022-12-13T13:47:29;10.55;;;3.72;;
773;SDS011;370;48.810;9.150;2022-12-13T13:50:01;5.78;;;2.33;;
773;SDS011;370;48.810;9.150;2022-12-13T13:52:43;5.03;;;3.33;;
773;SDS011;370;48.810;9.150;2022-12-13T13:55:27;6.93;;;1.65;;
773;SDS011;370;48.810;9.150;2022-12-13T13:58:31;5.20;;;1.88;;
773;SDS011;370;48.810;9.150;2022-12-13T14:01:31;5.13;;;2.42;;
773;SDS011;370;48.810;9.150;2022-12-13T14:04:37;5.10;;;3.30;;
773;SDS011;370;48.810;9.150;2022-12-13T14:07:38;4.20;;;2.33;;
773;SDS011;370;48.810;9.150;2022-12-13T14:10:25;5.90;;;2.45;;
773;SDS011;370;48.810;9.150;2022-12-13T14:13:28;10.45;;;3.67;;
773;SDS011;370;48.810;9.150;2022-12-13T14:22:30;2.65;;;2.03;;
773;SDS011;370;48.810;9.150;2022-12-13T14:25:13;2.03;;;1.58;;
773;SDS011;370;48.810;9.150;2022-12-13T14:28:00;16.05;;;5.43;;
773;SDS011;370;48.810;9.150;2022-12-13T14:30:30;6.20;;;1.73;;
773;SDS011;370;48.810;9.150;2022-12-13T14:32:57;8.55;;;3.88;;
773;SDS011;370;48.810;9.150;2022-12-13T14:35:26;8.32;;;2.78;;
773;SDS011;370;48.810;9.150;2022-12-13T14:37:55;5.55;;;2.72;;
773;SDS011;370;48.810;9.150;2022-12-13T14:40:26;16.55;;;3.60;;
773;SDS011;370;48.810;9.150;2022-12-13T14:42:55;2.28;;;1.42;;
773;SDS011;370;48.810;9.150;2022-12-13T14:45:23;6.65;;;2.88;;
773;SDS011;370;48.810;9.150;2022-12-13T14:47:53;8.88;;;3.03;;
773;SDS011;370;48.810;9.150;2022-12-13T14:50:22;12.93;;;2.70;;
773;SDS011;370;48.810;9.150;2022-12-13T14:52:52;6.88;;;2.35;;
773;SDS011;370;48.810;9.150;2022-12-13T14:55:23;7.25;;;4.18;;
773;SDS011;370;48.810;9.150;2022-12-13T14:57:52;5.10;;;2.25;;
773;SDS011;370;48.810;9.150;2022-12-13T15:00:21;7.13;;;2.65;;
773;SDS011;370;48.810;9.150;2022-12-13T15:02:51;5.70;;;2.20;;
773;SDS011;370;48.810;9.150;2022-12-13T15:05:22;4.78;;;2.17;;
773;SDS011;370;48.810;9.150;2022-12-13T15:07:51;4.88;;;1.60;;
773;SDS011;370;48.810;9.150;2022-12-13T15:10:19;1.60;;;1.50;;
773;SDS011;370;48.810;9.150;2022-12-13T15:12:49;3.95;;;1.75;;
773;SDS011;370;48.810;9.150;2022-12-13T15:15:20;3.58;;;2.88;;
773;SDS011;370;48.810;9.150;2022-12-13T15:17:53;8.63;;;2.20;;
773;SDS011;370;48.810;9.150;2022-12-13T15:20:31;3.33;;;1.40;;
773;SDS011;370;48.810;9.150;2022-12-13T15:23:01;5.55;;;1.35;;
773;SDS011;370;48.810;9.150;2022-12-13T15:25:31;1.65;;;1.55;;
773;SDS011;370;48.810;9.150;2022-12-13T15:27:59;3.08;;;1.40;;
773;SDS011;370;48.810;9.150;2022-12-13T15:30:26;3.13;;;1.15;;
773;SDS011;370;48.810;9.150;2022-12-13T15:33:06;5.68;;;2.58;;
773;SDS011;370;48.810;9.150;2022-12-13T15:35:43;5.57;;;1.65;;
773;SDS011;370;48.810;9.150;2022-12-13T15:38:15;4.82;;;2.80;;
773;SDS011;370;48.810;9.150;2022-12-13T15:40:45;9.57;;;1.88;;
773;SDS011;370;48.810;9.150;2022-12-13T15:43:14;1.30;;;1.02;;
773;SDS011;370;48.810;9.150;2022-12-13T15:45:43;8.07;;;2.78;;
773;SDS011;370;48.810;9.150;2022-12-13T15:48:17;12.25;;;2.15;;
773;SDS011;370;48.810;9.150;2022-12-13T15:50:50;1.67;;;0.85;;
773;SDS011;370;48.810;9.150;2022-12-13T15:53:32;1.13;;;1.08;;
773;SDS011;370;48.810;9.150;2022-12-13T15:55:59;5.35;;;2.15;;
773;SDS011;370;48.810;9.150;2022-12-13T15:58:26;1.38;;;1.15;;
773;SDS011;370;48.810;9.150;2022-12-13T16:00:57;2.30;;;1.48;;
773;SDS011;370;48.810;9.150;2022-12-13T16:03:29;3.78;;;2.00;;
773;SDS011;370;48.810;9.150;2022-12-13T16:06:04;1.88;;;1.42;;
773;SDS011;370;48.810;9.150;2022-12-13T16:08:34;1.17;;;1.08;;
773;SDS011;370;48.810;9.150;2022-12-13T16:11:03;5.95;;;1.52;;
773;SDS011;370;48.810;9.150;2022-12-13T16:13:31;8.45;;;2.13;;
773;SDS011;370;48.810;9.150;2022-12-13T16:15:59;8.73;;;2.60;;
773;SDS011;370;48.810;9.150;2022-12-13T16:18:45;1.70;;;1.20;;
773;SDS011;370;48.810;9.150;2022-12-13T16:21:17;4.55;;;1.70;;
773;SDS011;370;48.810;9.150;2022-12-13T16:23:45;11.77;;;1.88;;
773;SDS011;370;48.810;9.150;2022-12-13T16:26:12;5.28;;;2.85;;
773;SDS011;370;48.810;9.150;2022-12-13T16:28:39;1.90;;;0.85;;
773;SDS011;370;48.810;9.150;2022-12-13T16:31:10;2.75;;;1.58;;
773;SDS011;370;48.810;9.150;2022-12-13T16:33:41;3.10;;;1.33;;